createdAt,value
2022-08-28T00:02:00.233Z,18.00
2022-08-28T00:07:02.966Z,17.90
2022-08-28T00:12:06.145Z,17.70
2022-08-28T00:17:08.961Z,17.90
2022-08-28T00:22:11.741Z,18.00
2022-08-28T00:27:32.279Z,17.90
2022-08-28T00:32:36.178Z,17.80
2022-08-28T00:37:40.102Z,17.70
2022-08-28T00:42:42.957Z,17.70
2022-08-28T00:47:45.945Z,17.70
2022-08-28T00:52:48.758Z,17.60
2022-08-28T00:57:51.729Z,17.60
2022-08-28T01:02:54.628Z,17.50
2022-08-28T01:07:58.738Z,17.50
2022-08-28T01:13:01.504Z,17.50
2022-08-28T01:18:08.022Z,17.80
2022-08-28T01:23:11.249Z,17.50
2022-08-28T01:28:14.434Z,17.40
2022-08-28T01:33:19.394Z,17.50
2022-08-28T01:38:30.725Z,17.50
2022-08-28T01:43:33.648Z,17.50
2022-08-28T01:48:37.074Z,17.50
2022-08-28T01:53:39.954Z,17.50
2022-08-28T01:58:42.651Z,17.50
2022-08-28T02:03:45.580Z,17.50
2022-08-28T02:08:49.995Z,17.50
2022-08-28T02:13:52.805Z,17.50
2022-08-28T02:18:57.161Z,17.50
2022-08-28T02:23:59.966Z,17.50
2022-08-28T02:29:02.689Z,17.50
2022-08-28T02:34:06.075Z,17.50
2022-08-28T02:39:08.962Z,17.40
2022-08-28T02:44:11.689Z,17.40
2022-08-28T02:49:14.484Z,17.40
2022-08-28T02:54:18.474Z,17.40
2022-08-28T02:59:21.399Z,17.40
2022-08-28T03:04:24.469Z,17.40
2022-08-28T03:09:27.197Z,17.30
2022-08-28T03:14:30.941Z,17.30
2022-08-28T03:19:33.757Z,17.30
2022-08-28T03:24:37.530Z,17.30
2022-08-28T03:29:40.375Z,17.30
2022-08-28T03:34:43.264Z,17.40
2022-08-28T03:39:46.132Z,17.40
2022-08-28T03:44:49.399Z,17.40
2022-08-28T03:49:52.783Z,17.30
2022-08-28T03:54:55.974Z,17.30
2022-08-28T03:59:58.813Z,17.40
2022-08-28T04:05:01.671Z,17.30
2022-08-28T04:10:04.561Z,17.30
2022-08-28T04:15:07.355Z,17.40
2022-08-28T04:20:10.923Z,17.40
2022-08-28T04:25:13.812Z,17.40
2022-08-28T04:30:16.586Z,17.40
2022-08-28T04:35:19.720Z,17.50
2022-08-28T04:40:22.696Z,17.50
2022-08-28T04:45:25.938Z,17.50
2022-08-28T04:50:28.677Z,17.50
2022-08-28T04:55:53.541Z,17.50
2022-08-28T05:00:54.555Z,17.50
2022-08-28T05:05:57.453Z,17.60
2022-08-28T05:11:00.626Z,17.60
2022-08-28T05:16:03.904Z,17.70
2022-08-28T05:21:06.809Z,17.70
2022-08-28T05:26:09.524Z,17.60
2022-08-28T05:31:12.344Z,17.60
2022-08-28T05:36:15.306Z,17.60
2022-08-28T05:41:18.160Z,17.60
2022-08-28T05:46:20.889Z,17.60
2022-08-28T05:51:23.968Z,17.60
2022-08-28T05:56:29.506Z,17.70
2022-08-28T06:01:32.289Z,17.70
2022-08-28T06:06:35.594Z,17.80
2022-08-28T06:11:39.037Z,17.90
2022-08-28T06:16:47.644Z,18.10
2022-08-28T06:21:51.762Z,18.20
2022-08-28T06:26:56.559Z,18.30
2022-08-28T06:32:01.596Z,18.40
2022-08-28T06:37:04.581Z,18.30
2022-08-28T06:42:07.332Z,18.30
2022-08-28T06:47:11.593Z,18.40
2022-08-28T06:52:14.269Z,18.40
2022-08-28T06:57:17.129Z,18.40
2022-08-28T07:02:20.169Z,18.40
2022-08-28T07:07:32.400Z,18.50
2022-08-28T07:12:35.838Z,18.70
2022-08-28T07:17:38.598Z,19.00
2022-08-28T07:22:42.137Z,19.00
2022-08-28T07:27:45.223Z,19.00
2022-08-28T07:32:49.946Z,19.10
2022-08-28T07:37:52.818Z,19.10
2022-08-28T07:43:13.129Z,20.00
2022-08-28T07:48:16.792Z,18.40
2022-08-28T07:53:25.549Z,17.90
2022-08-28T07:58:28.423Z,17.70
2022-08-28T08:03:32.698Z,17.50
2022-08-28T08:08:35.585Z,17.40
2022-08-28T08:13:38.280Z,17.30
2022-08-28T08:18:41.941Z,17.20
2022-08-28T08:23:44.645Z,17.20
2022-08-28T08:28:47.354Z,17.40
2022-08-28T08:33:50.180Z,17.60
2022-08-28T08:38:59.147Z,17.60
2022-08-28T08:44:03.021Z,17.60
2022-08-28T08:49:06.030Z,17.60
2022-08-28T08:54:08.755Z,17.70
2022-08-28T08:59:11.810Z,17.80
2022-08-28T09:04:15.785Z,17.80
2022-08-28T09:09:18.753Z,17.90
2022-08-28T09:14:21.599Z,17.90
2022-08-28T09:19:29.743Z,18.00
2022-08-28T09:24:33.086Z,18.00
2022-08-28T09:29:36.215Z,18.00
2022-08-28T09:34:39.261Z,18.00
2022-08-28T09:39:45.557Z,18.10
2022-08-28T09:44:51.969Z,18.20
2022-08-28T09:49:55.003Z,18.10
2022-08-28T09:54:57.745Z,18.20
2022-08-28T10:00:00.634Z,18.10
2022-08-28T10:05:03.477Z,17.90
2022-08-28T10:10:07.611Z,18.00
2022-08-28T10:15:10.425Z,17.90
2022-08-28T10:20:13.197Z,18.00
2022-08-28T10:25:16.229Z,18.10
2022-08-28T10:30:19.380Z,18.20
2022-08-28T10:35:22.198Z,18.20
2022-08-28T10:40:25.008Z,18.30
2022-08-28T10:45:27.810Z,18.40
2022-08-28T10:50:30.693Z,18.50
2022-08-28T10:55:34.990Z,18.60
2022-08-28T11:00:39.362Z,18.70
2022-08-28T11:05:52.457Z,18.70
2022-08-28T11:10:56.376Z,18.80
2022-08-28T11:15:59.253Z,18.90
2022-08-28T11:21:02.041Z,19.00
2022-08-28T11:26:04.775Z,19.10
2022-08-28T11:31:07.728Z,19.10
2022-08-28T11:36:10.613Z,19.20
2022-08-28T11:41:14.518Z,19.60
2022-08-28T11:46:19.950Z,19.70
2022-08-28T11:51:26.410Z,19.80
2022-08-28T11:56:31.874Z,19.90
2022-08-28T12:01:35.468Z,20.00
2022-08-28T12:06:39.152Z,20.20
2022-08-28T12:11:41.934Z,20.30
2022-08-28T12:16:44.851Z,20.40
2022-08-28T12:21:47.748Z,20.80
2022-08-28T12:26:51.258Z,20.90
2022-08-28T12:32:12.650Z,21.10
2022-08-28T12:37:15.367Z,21.40
2022-08-28T12:42:18.129Z,21.80
2022-08-28T12:47:22.922Z,22.20
2022-08-28T12:52:25.692Z,22.60
2022-08-28T12:57:28.687Z,23.10
2022-08-28T13:02:33.712Z,23.40
2022-08-28T13:07:37.139Z,23.30
2022-08-28T13:12:56.024Z,23.10
2022-08-28T13:18:00.985Z,22.90
2022-08-28T13:23:03.784Z,22.60
2022-08-28T13:28:06.506Z,22.30
2022-08-28T13:33:10.411Z,22.20
2022-08-28T13:38:13.471Z,22.10
2022-08-28T13:43:16.398Z,22.30
2022-08-28T13:48:19.271Z,22.50
2022-08-28T13:53:22.688Z,22.50
2022-08-28T13:58:26.458Z,22.60
2022-08-28T14:03:39.226Z,22.60
2022-08-28T14:08:43.390Z,22.60
2022-08-28T14:13:55.111Z,22.80
2022-08-28T14:19:04.153Z,22.90
2022-08-28T14:24:07.122Z,23.00
2022-08-28T14:29:09.928Z,23.30
2022-08-28T14:34:12.774Z,23.30
2022-08-28T14:39:15.642Z,23.60
2022-08-28T14:44:18.862Z,24.00
2022-08-28T14:49:22.019Z,24.00
2022-08-28T14:54:24.926Z,24.00
2022-08-28T14:59:28.916Z,23.80
2022-08-28T15:04:34.775Z,23.20
2022-08-28T15:09:37.815Z,22.20
2022-08-28T15:14:40.971Z,21.40
2022-08-28T15:20:00.427Z,20.40
2022-08-28T15:25:03.314Z,20.10
2022-08-28T15:30:06.029Z,20.30
2022-08-28T15:35:08.863Z,21.00
2022-08-28T15:40:29.538Z,21.70
2022-08-28T15:45:32.693Z,22.00
2022-08-28T15:50:36.101Z,22.20
2022-08-28T15:55:39.554Z,22.20
2022-08-28T16:00:42.906Z,22.20
2022-08-28T16:05:46.221Z,22.10
2022-08-28T16:10:49.988Z,21.70
2022-08-28T16:15:53.128Z,21.50
2022-08-28T16:20:56.021Z,21.30
2022-08-28T16:26:16.206Z,21.20
2022-08-28T16:31:19.693Z,21.00
2022-08-28T16:36:25.253Z,21.00
2022-08-28T16:41:28.466Z,20.80
2022-08-28T16:46:32.718Z,20.80
2022-08-28T16:51:35.603Z,20.70
2022-08-28T16:56:39.529Z,20.60
2022-08-28T17:01:46.168Z,20.80
2022-08-28T17:06:59.673Z,20.70
2022-08-28T17:12:03.934Z,20.80
2022-08-28T17:17:08.358Z,20.70
2022-08-28T17:22:28.902Z,20.70
2022-08-28T17:27:33.326Z,20.50
2022-08-28T17:32:45.825Z,20.30
2022-08-28T17:37:50.786Z,20.10
2022-08-28T17:42:54.003Z,20.00
2022-08-28T17:47:56.868Z,19.90
2022-08-28T17:53:00.117Z,19.80
2022-08-28T17:58:03.346Z,19.80
2022-08-28T18:03:07.578Z,19.70
2022-08-28T18:08:10.775Z,19.60
2022-08-28T18:13:15.181Z,19.60
2022-08-28T18:18:18.092Z,19.60
2022-08-28T18:33:29.695Z,19.90
2022-08-28T18:38:35.169Z,19.10
2022-08-28T18:43:38.499Z,19.20
2022-08-28T18:48:41.852Z,19.10
2022-08-28T18:53:45.146Z,19.00
2022-08-28T18:58:48.903Z,18.90
2022-08-28T19:03:59.104Z,18.80
2022-08-28T19:09:32.233Z,19.00
2022-08-28T19:14:36.025Z,18.80
2022-08-28T19:19:38.871Z,18.90
2022-08-28T19:24:42.289Z,18.80
2022-08-28T19:29:45.488Z,18.10
2022-08-28T19:34:49.349Z,18.80
2022-08-28T19:39:56.396Z,18.50
2022-08-28T19:45:00.923Z,18.50
2022-08-28T19:50:05.239Z,18.60
2022-08-28T19:55:08.461Z,18.40
2022-08-28T20:00:11.656Z,18.40
2022-08-28T20:05:14.712Z,18.30
2022-08-28T20:10:17.621Z,18.30
2022-08-28T20:15:20.873Z,18.20
2022-08-28T20:20:29.769Z,18.30
2022-08-28T20:25:34.918Z,18.30
2022-08-28T20:30:39.408Z,18.10
2022-08-28T20:35:42.572Z,18.10
2022-08-28T20:40:46.717Z,18.00
2022-08-28T20:45:49.809Z,17.90
2022-08-28T20:50:55.748Z,17.90
2022-08-28T20:55:58.761Z,17.80
2022-08-28T21:01:01.939Z,17.80
2022-08-28T21:06:04.956Z,17.70
2022-08-28T21:11:30.968Z,17.60
2022-08-28T21:16:35.084Z,17.60
2022-08-28T21:21:37.982Z,17.50
2022-08-28T21:26:42.707Z,17.50
2022-08-28T21:31:48.294Z,17.40
2022-08-28T21:36:51.050Z,17.40
2022-08-28T21:41:53.765Z,17.30
2022-08-28T21:46:56.493Z,17.30
2022-08-28T21:52:01.370Z,17.20
2022-08-28T21:57:04.453Z,17.20
2022-08-28T22:02:11.217Z,17.10
2022-08-28T22:07:14.358Z,17.10
2022-08-28T22:12:17.519Z,17.10
2022-08-28T22:17:20.341Z,17.00
2022-08-28T22:22:41.298Z,16.90
2022-08-28T22:27:44.033Z,17.00
2022-08-28T22:32:46.923Z,17.00
2022-08-28T22:37:49.871Z,16.90
2022-08-28T22:42:52.626Z,16.90
2022-08-28T22:47:55.388Z,16.90
2022-08-28T22:52:58.339Z,16.80
2022-08-28T22:58:01.076Z,16.80
2022-08-28T23:03:04.170Z,16.80
2022-08-28T23:08:06.938Z,16.70
2022-08-28T23:13:09.718Z,16.80
2022-08-28T23:18:17.443Z,16.70
2022-08-28T23:23:21.650Z,16.80
2022-08-28T23:28:24.469Z,16.60
2022-08-28T23:33:27.192Z,16.60
2022-08-28T23:38:30.232Z,16.50
2022-08-28T23:43:33.009Z,16.60
2022-08-28T23:48:35.730Z,16.60
2022-08-28T23:53:38.567Z,16.50
2022-08-28T23:58:43.203Z,16.50
